sensor_id;sensor_type;location;lat;lon;timestamp;P1;durP1;ratioP1;P2;durP2;ratioP2
7402;SDS011;3742;48.770;11.440;2022-10-20T00:02:20;14.73;;;8.53;;
7402;SDS011;3742;48.770;11.440;2022-10-20T00:04:48;12.23;;;9.00;;
7402;SDS011;3742;48.770;11.440;2022-10-20T00:07:17;11.00;;;8.07;;
7402;SDS011;3742;48.770;11.440;2022-10-20T00:09:47;9.87;;;8.40;;
7402;SDS011;3742;48.770;11.440;2022-10-20T00:12:15;9.50;;;8.20;;
7402;SDS011;3742;48.770;11.440;2022-10-20T00:14:45;11.20;;;8.83;;
7402;SDS011;3742;48.770;11.440;2022-10-20T00:17:14;17.57;;;8.87;;
7402;SDS011;3742;48.770;11.440;2022-10-20T00:19:42;10.10;;;8.57;;
7402;SDS011;3742;48.770;11.440;2022-10-20T00:22:14;9.70;;;8.30;;
7402;SDS011;3742;48.770;11.440;2022-10-20T00:24:43;17.67;;;9.10;;
7402;SDS011;3742;48.770;11.440;2022-10-20T00:27:13;9.00;;;8.10;;
7402;SDS011;3742;48.770;11.440;2022-10-20T00:29:42;10.40;;;8.63;;
7402;SDS011;3742;48.770;11.440;2022-10-20T00:32:10;10.53;;;8.80;;
7402;SDS011;3742;48.770;11.440;2022-10-20T00:34:39;10.37;;;8.53;;
7402;SDS011;3742;48.770;11.440;2022-10-20T00:37:07;13.47;;;8.83;;
7402;SDS011;3742;48.770;11.440;2022-10-20T00:39:36;11.57;;;8.63;;
7402;SDS011;3742;48.770;11.440;2022-10-20T00:42:05;11.23;;;8.77;;
7402;SDS011;3742;48.770;11.440;2022-10-20T00:44:48;10.17;;;8.80;;
7402;SDS011;3742;48.770;11.440;2022-10-20T00:47:19;10.33;;;8.90;;
7402;SDS011;3742;48.770;11.440;2022-10-20T00:49:49;11.30;;;9.17;;
7402;SDS011;3742;48.770;11.440;2022-10-20T00:52:19;11.17;;;9.90;;
7402;SDS011;3742;48.770;11.440;2022-10-20T00:54:49;13.87;;;9.57;;
7402;SDS011;3742;48.770;11.440;2022-10-20T00:57:18;14.13;;;9.67;;
7402;SDS011;3742;48.770;11.440;2022-10-20T00:59:48;12.07;;;9.90;;
7402;SDS011;3742;48.770;11.440;2022-10-20T01:02:17;11.97;;;9.53;;
7402;SDS011;3742;48.770;11.440;2022-10-20T01:04:45;11.90;;;9.47;;
7402;SDS011;3742;48.770;11.440;2022-10-20T01:07:14;10.77;;;9.60;;
7402;SDS011;3742;48.770;11.440;2022-10-20T01:09:43;11.17;;;9.33;;
7402;SDS011;3742;48.770;11.440;2022-10-20T01:12:18;12.67;;;9.47;;
7402;SDS011;3742;48.770;11.440;2022-10-20T01:14:56;11.03;;;9.57;;
7402;SDS011;3742;48.770;11.440;2022-10-20T01:17:34;11.13;;;9.37;;
7402;SDS011;3742;48.770;11.440;2022-10-20T01:23:33;12.83;;;9.57;;
7402;SDS011;3742;48.770;11.440;2022-10-20T01:26:36;12.07;;;9.10;;
7402;SDS011;3742;48.770;11.440;2022-10-20T01:29:20;11.33;;;10.00;;
7402;SDS011;3742;48.770;11.440;2022-10-20T01:31:52;13.37;;;9.83;;
7402;SDS011;3742;48.770;11.440;2022-10-20T01:34:29;12.77;;;10.40;;
7402;SDS011;3742;48.770;11.440;2022-10-20T01:36:59;11.93;;;9.90;;
7402;SDS011;3742;48.770;11.440;2022-10-20T01:39:32;12.10;;;9.50;;
7402;SDS011;3742;48.770;11.440;2022-10-20T01:42:04;9.77;;;8.73;;
7402;SDS011;3742;48.770;11.440;2022-10-20T01:44:36;13.33;;;10.33;;
7402;SDS011;3742;48.770;11.440;2022-10-20T01:47:05;11.90;;;9.47;;
7402;SDS011;3742;48.770;11.440;2022-10-20T01:49:35;11.77;;;9.63;;
7402;SDS011;3742;48.770;11.440;2022-10-20T01:52:04;10.63;;;9.50;;
7402;SDS011;3742;48.770;11.440;2022-10-20T01:54:32;12.20;;;9.13;;
7402;SDS011;3742;48.770;11.440;2022-10-20T01:57:06;12.80;;;9.77;;
7402;SDS011;3742;48.770;11.440;2022-10-20T01:59:49;11.50;;;9.73;;
7402;SDS011;3742;48.770;11.440;2022-10-20T02:02:31;11.07;;;9.17;;
7402;SDS011;3742;48.770;11.440;2022-10-20T02:05:09;13.80;;;10.27;;
7402;SDS011;3742;48.770;11.440;2022-10-20T02:07:45;10.67;;;9.03;;
7402;SDS011;3742;48.770;11.440;2022-10-20T02:10:16;14.47;;;9.57;;
7402;SDS011;3742;48.770;11.440;2022-10-20T02:12:47;10.93;;;9.30;;
7402;SDS011;3742;48.770;11.440;2022-10-20T02:15:19;11.33;;;9.67;;
7402;SDS011;3742;48.770;11.440;2022-10-20T02:17:52;12.63;;;9.10;;
7402;SDS011;3742;48.770;11.440;2022-10-20T02:20:24;11.73;;;9.90;;
7402;SDS011;3742;48.770;11.440;2022-10-20T02:22:53;11.33;;;9.53;;
7402;SDS011;3742;48.770;11.440;2022-10-20T02:25:23;11.67;;;9.50;;
7402;SDS011;3742;48.770;11.440;2022-10-20T02:27:52;11.50;;;9.30;;
7402;SDS011;3742;48.770;11.440;2022-10-20T02:30:23;11.27;;;10.00;;
7402;SDS011;3742;48.770;11.440;2022-10-20T02:32:52;11.90;;;9.40;;
7402;SDS011;3742;48.770;11.440;2022-10-20T02:35:21;11.70;;;9.10;;
7402;SDS011;3742;48.770;11.440;2022-10-20T02:37:51;11.90;;;9.03;;
7402;SDS011;3742;48.770;11.440;2022-10-20T02:40:19;11.23;;;9.70;;
7402;SDS011;3742;48.770;11.440;2022-10-20T02:42:48;15.83;;;10.37;;
7402;SDS011;3742;48.770;11.440;2022-10-20T02:45:17;11.20;;;9.63;;
7402;SDS011;3742;48.770;11.440;2022-10-20T02:47:47;10.70;;;9.60;;
7402;SDS011;3742;48.770;11.440;2022-10-20T02:50:16;11.93;;;9.67;;
7402;SDS011;3742;48.770;11.440;2022-10-20T02:52:45;11.63;;;10.43;;
7402;SDS011;3742;48.770;11.440;2022-10-20T02:55:13;13.77;;;10.20;;
7402;SDS011;3742;48.770;11.440;2022-10-20T02:57:42;12.17;;;9.77;;
7402;SDS011;3742;48.770;11.440;2022-10-20T03:00:11;12.27;;;10.60;;
7402;SDS011;3742;48.770;11.440;2022-10-20T03:02:41;13.83;;;10.67;;
7402;SDS011;3742;48.770;11.440;2022-10-20T03:05:11;12.43;;;10.53;;
7402;SDS011;3742;48.770;11.440;2022-10-20T03:07:39;13.30;;;10.63;;
7402;SDS011;3742;48.770;11.440;2022-10-20T03:10:08;17.47;;;10.37;;
7402;SDS011;3742;48.770;11.440;2022-10-20T03:12:37;16.23;;;10.23;;
7402;SDS011;3742;48.770;11.440;2022-10-20T03:15:06;14.17;;;10.73;;
7402;SDS011;3742;48.770;11.440;2022-10-20T03:17:34;12.57;;;10.37;;
7402;SDS011;3742;48.770;11.440;2022-10-20T03:20:04;10.67;;;9.60;;
7402;SDS011;3742;48.770;11.440;2022-10-20T03:22:35;14.50;;;10.80;;
7402;SDS011;3742;48.770;11.440;2022-10-20T03:25:04;14.10;;;10.80;;
7402;SDS011;3742;48.770;11.440;2022-10-20T03:27:33;12.00;;;10.73;;
7402;SDS011;3742;48.770;11.440;2022-10-20T03:30:02;12.93;;;11.07;;
7402;SDS011;3742;48.770;11.440;2022-10-20T03:32:31;12.63;;;11.17;;
7402;SDS011;3742;48.770;11.440;2022-10-20T03:35:00;13.23;;;10.07;;
7402;SDS011;3742;48.770;11.440;2022-10-20T03:37:28;12.13;;;10.90;;
7402;SDS011;3742;48.770;11.440;2022-10-20T03:39:58;13.30;;;11.00;;
7402;SDS011;3742;48.770;11.440;2022-10-20T03:42:26;19.73;;;11.53;;
7402;SDS011;3742;48.770;11.440;2022-10-20T03:44:55;13.57;;;9.93;;
7402;SDS011;3742;48.770;11.440;2022-10-20T03:47:24;13.63;;;11.07;;
7402;SDS011;3742;48.770;11.440;2022-10-20T03:49:52;14.70;;;10.63;;
7402;SDS011;3742;48.770;11.440;2022-10-20T03:52:21;11.00;;;10.00;;
7402;SDS011;3742;48.770;11.440;2022-10-20T03:54:49;12.07;;;10.87;;
7402;SDS011;3742;48.770;11.440;2022-10-20T03:57:19;11.87;;;10.57;;
7402;SDS011;3742;48.770;11.440;2022-10-20T03:59:48;11.30;;;10.10;;
7402;SDS011;3742;48.770;11.440;2022-10-20T04:02:21;11.77;;;10.40;;
7402;SDS011;3742;48.770;11.440;2022-10-20T04:04:53;12.33;;;9.87;;
7402;SDS011;3742;48.770;11.440;2022-10-20T04:07:22;15.00;;;10.37;;
7402;SDS011;3742;48.770;11.440;2022-10-20T04:09:51;11.73;;;10.10;;
7402;SDS011;3742;48.770;11.440;2022-10-20T04:12:23;11.60;;;10.17;;
7402;SDS011;3742;48.770;11.440;2022-10-20T04:14:53;12.70;;;10.40;;
7402;SDS011;3742;48.770;11.440;2022-10-20T04:17:22;15.03;;;10.63;;
7402;SDS011;3742;48.770;11.440;2022-10-20T04:19:50;13.47;;;10.83;;
7402;SDS011;3742;48.770;11.440;2022-10-20T04:22:19;11.80;;;9.90;;
7402;SDS011;3742;48.770;11.440;2022-10-20T04:24:48;13.33;;;10.43;;
7402;SDS011;3742;48.770;11.440;2022-10-20T04:27:17;15.57;;;10.33;;
7402;SDS011;3742;48.770;11.440;2022-10-20T04:29:47;14.23;;;10.33;;
7402;SDS011;3742;48.770;11.440;2022-10-20T04:32:15;13.63;;;10.17;;
7402;SDS011;3742;48.770;11.440;2022-10-20T04:34:44;15.30;;;10.40;;
7402;SDS011;3742;48.770;11.440;2022-10-20T04:37:13;14.67;;;10.40;;
7402;SDS011;3742;48.770;11.440;2022-10-20T04:39:42;11.97;;;10.17;;
7402;SDS011;3742;48.770;11.440;2022-10-20T04:42:10;13.83;;;9.70;;
7402;SDS011;3742;48.770;11.440;2022-10-20T04:44:39;11.17;;;10.13;;
7402;SDS011;3742;48.770;11.440;2022-10-20T04:47:10;12.37;;;10.67;;
7402;SDS011;3742;48.770;11.440;2022-10-20T04:49:39;13.40;;;10.00;;
7402;SDS011;3742;48.770;11.440;2022-10-20T04:52:12;12.50;;;9.83;;
7402;SDS011;3742;48.770;11.440;2022-10-20T04:55:05;15.47;;;10.47;;
7402;SDS011;3742;48.770;11.440;2022-10-20T04:57:34;13.27;;;10.23;;
7402;SDS011;3742;48.770;11.440;2022-10-20T05:00:04;10.93;;;9.43;;
7402;SDS011;3742;48.770;11.440;2022-10-20T05:02:35;15.07;;;9.43;;
7402;SDS011;3742;48.770;11.440;2022-10-20T05:05:04;11.43;;;9.50;;
7402;SDS011;3742;48.770;11.440;2022-10-20T05:07:33;13.47;;;10.13;;
7402;SDS011;3742;48.770;11.440;2022-10-20T05:10:02;13.47;;;9.93;;
7402;SDS011;3742;48.770;11.440;2022-10-20T05:12:31;12.63;;;9.97;;
7402;SDS011;3742;48.770;11.440;2022-10-20T05:15:01;12.97;;;9.87;;
7402;SDS011;3742;48.770;11.440;2022-10-20T05:17:29;13.13;;;10.60;;
7402;SDS011;3742;48.770;11.440;2022-10-20T05:19:59;14.30;;;9.77;;
7402;SDS011;3742;48.770;11.440;2022-10-20T05:22:29;11.23;;;10.03;;
7402;SDS011;3742;48.770;11.440;2022-10-20T05:24:58;15.50;;;10.70;;
7402;SDS011;3742;48.770;11.440;2022-10-20T05:27:46;13.30;;;9.80;;
7402;SDS011;3742;48.770;11.440;2022-10-20T05:30:15;11.87;;;10.43;;
7402;SDS011;3742;48.770;11.440;2022-10-20T05:32:44;11.63;;;10.43;;
7402;SDS011;3742;48.770;11.440;2022-10-20T05:35:14;11.63;;;10.10;;
7402;SDS011;3742;48.770;11.440;2022-10-20T05:37:43;12.30;;;10.07;;
7402;SDS011;3742;48.770;11.440;2022-10-20T05:40:12;14.20;;;10.47;;
7402;SDS011;3742;48.770;11.440;2022-10-20T05:42:40;11.87;;;9.93;;
7402;SDS011;3742;48.770;11.440;2022-10-20T05:45:09;12.00;;;9.93;;
7402;SDS011;3742;48.770;11.440;2022-10-20T05:47:38;14.47;;;10.30;;
7402;SDS011;3742;48.770;11.440;2022-10-20T05:50:08;15.50;;;9.47;;
7402;SDS011;3742;48.770;11.440;2022-10-20T05:52:38;11.13;;;9.87;;
7402;SDS011;3742;48.770;11.440;2022-10-20T05:55:07;13.07;;;9.60;;
7402;SDS011;3742;48.770;11.440;2022-10-20T05:57:36;10.60;;;9.10;;
7402;SDS011;3742;48.770;11.440;2022-10-20T06:00:05;11.43;;;10.13;;
7402;SDS011;3742;48.770;11.440;2022-10-20T06:02:37;13.03;;;10.17;;
7402;SDS011;3742;48.770;11.440;2022-10-20T06:05:06;14.13;;;9.70;;
7402;SDS011;3742;48.770;11.440;2022-10-20T06:07:34;13.77;;;9.90;;
7402;SDS011;3742;48.770;11.440;2022-10-20T06:10:04;10.63;;;9.17;;
7402;SDS011;3742;48.770;11.440;2022-10-20T06:12:34;12.80;;;9.60;;
7402;SDS011;3742;48.770;11.440;2022-10-20T06:15:03;13.50;;;9.87;;
7402;SDS011;3742;48.770;11.440;2022-10-20T06:17:32;12.27;;;8.80;;
7402;SDS011;3742;48.770;11.440;2022-10-20T06:20:00;12.33;;;8.80;;
7402;SDS011;3742;48.770;11.440;2022-10-20T06:22:29;13.37;;;8.93;;
7402;SDS011;3742;48.770;11.440;2022-10-20T06:24:57;13.07;;;9.40;;
7402;SDS011;3742;48.770;11.440;2022-10-20T06:27:27;10.43;;;9.20;;
7402;SDS011;3742;48.770;11.440;2022-10-20T06:29:55;11.87;;;9.27;;
7402;SDS011;3742;48.770;11.440;2022-10-20T06:32:24;10.17;;;9.10;;
7402;SDS011;3742;48.770;11.440;2022-10-20T06:34:52;10.30;;;9.17;;
7402;SDS011;3742;48.770;11.440;2022-10-20T06:37:21;12.37;;;9.67;;
7402;SDS011;3742;48.770;11.440;2022-10-20T06:39:49;9.80;;;8.80;;
7402;SDS011;3742;48.770;11.440;2022-10-20T06:42:18;14.97;;;9.37;;
7402;SDS011;3742;48.770;11.440;2022-10-20T06:44:48;10.67;;;8.63;;
7402;SDS011;3742;48.770;11.440;2022-10-20T06:47:17;12.63;;;9.23;;
7402;SDS011;3742;48.770;11.440;2022-10-20T06:49:46;11.23;;;8.83;;
7402;SDS011;3742;48.770;11.440;2022-10-20T06:52:15;13.50;;;8.93;;
7402;SDS011;3742;48.770;11.440;2022-10-20T06:54:44;11.60;;;9.10;;
7402;SDS011;3742;48.770;11.440;2022-10-20T06:57:12;9.57;;;8.67;;
7402;SDS011;3742;48.770;11.440;2022-10-20T06:59:41;10.07;;;9.07;;
7402;SDS011;3742;48.770;11.440;2022-10-20T07:02:11;12.97;;;9.20;;
7402;SDS011;3742;48.770;11.440;2022-10-20T07:04:39;12.03;;;9.43;;
7402;SDS011;3742;48.770;11.440;2022-10-20T07:07:08;10.77;;;9.10;;
7402;SDS011;3742;48.770;11.440;2022-10-20T07:09:36;10.30;;;9.20;;
7402;SDS011;3742;48.770;11.440;2022-10-20T07:12:05;9.73;;;8.63;;
7402;SDS011;3742;48.770;11.440;2022-10-20T07:14:33;13.90;;;9.70;;
7402;SDS011;3742;48.770;11.440;2022-10-20T07:17:03;10.97;;;7.97;;
7402;SDS011;3742;48.770;11.440;2022-10-20T07:19:33;11.00;;;8.80;;
7402;SDS011;3742;48.770;11.440;2022-10-20T07:22:01;14.07;;;8.83;;
7402;SDS011;3742;48.770;11.440;2022-10-20T07:24:29;10.97;;;9.10;;
7402;SDS011;3742;48.770;11.440;2022-10-20T07:26:58;13.13;;;9.57;;
7402;SDS011;3742;48.770;11.440;2022-10-20T07:29:26;13.87;;;9.47;;
7402;SDS011;3742;48.770;11.440;2022-10-20T07:31:55;15.07;;;10.33;;
7402;SDS011;3742;48.770;11.440;2022-10-20T07:34:27;12.83;;;9.87;;
7402;SDS011;3742;48.770;11.440;2022-10-20T07:36:58;13.17;;;10.07;;
7402;SDS011;3742;48.770;11.440;2022-10-20T07:39:26;12.17;;;9.47;;
7402;SDS011;3742;48.770;11.440;2022-10-20T07:41:55;14.93;;;9.03;;
7402;SDS011;3742;48.770;11.440;2022-10-20T07:44:24;10.37;;;8.63;;
7402;SDS011;3742;48.770;11.440;2022-10-20T07:46:52;9.73;;;8.73;;
7402;SDS011;3742;48.770;11.440;2022-10-20T07:49:21;11.33;;;8.40;;
7402;SDS011;3742;48.770;11.440;2022-10-20T07:52:11;11.40;;;8.00;;
7402;SDS011;3742;48.770;11.440;2022-10-20T07:54:42;10.13;;;7.97;;
7402;SDS011;3742;48.770;11.440;2022-10-20T07:57:11;9.10;;;7.90;;
7402;SDS011;3742;48.770;11.440;2022-10-20T07:59:40;10.53;;;7.60;;
7402;SDS011;3742;48.770;11.440;2022-10-20T08:02:09;12.37;;;7.40;;
7402;SDS011;3742;48.770;11.440;2022-10-20T08:04:39;9.10;;;7.70;;
7402;SDS011;3742;48.770;11.440;2022-10-20T08:07:11;9.90;;;7.97;;
7402;SDS011;3742;48.770;11.440;2022-10-20T08:09:40;10.93;;;7.53;;
7402;SDS011;3742;48.770;11.440;2022-10-20T08:12:08;7.80;;;6.83;;
7402;SDS011;3742;48.770;11.440;2022-10-20T08:14:37;9.73;;;7.80;;
7402;SDS011;3742;48.770;11.440;2022-10-20T08:17:06;8.93;;;7.80;;
7402;SDS011;3742;48.770;11.440;2022-10-20T08:19:37;7.97;;;7.17;;
7402;SDS011;3742;48.770;11.440;2022-10-20T08:22:06;15.83;;;7.07;;
7402;SDS011;3742;48.770;11.440;2022-10-20T08:24:36;12.77;;;8.20;;
7402;SDS011;3742;48.770;11.440;2022-10-20T08:27:05;11.20;;;7.17;;
7402;SDS011;3742;48.770;11.440;2022-10-20T08:29:34;9.63;;;6.73;;
7402;SDS011;3742;48.770;11.440;2022-10-20T08:32:03;7.90;;;7.20;;
7402;SDS011;3742;48.770;11.440;2022-10-20T08:37:53;10.30;;;8.03;;
7402;SDS011;3742;48.770;11.440;2022-10-20T08:40:46;9.90;;;7.67;;
7402;SDS011;3742;48.770;11.440;2022-10-20T08:44:22;11.60;;;7.37;;
7402;SDS011;3742;48.770;11.440;2022-10-20T08:49:45;8.53;;;6.47;;
7402;SDS011;3742;48.770;11.440;2022-10-20T08:52:13;11.33;;;6.67;;
7402;SDS011;3742;48.770;11.440;2022-10-20T08:54:43;8.80;;;6.80;;
7402;SDS011;3742;48.770;11.440;2022-10-20T08:57:20;8.43;;;7.00;;
7402;SDS011;3742;48.770;11.440;2022-10-20T08:59:52;11.33;;;7.27;;
7402;SDS011;3742;48.770;11.440;2022-10-20T09:02:22;7.93;;;7.10;;
7402;SDS011;3742;48.770;11.440;2022-10-20T09:04:52;6.87;;;6.10;;
7402;SDS011;3742;48.770;11.440;2022-10-20T09:07:23;8.07;;;7.10;;
7402;SDS011;3742;48.770;11.440;2022-10-20T09:10:00;9.07;;;6.60;;
7402;SDS011;3742;48.770;11.440;2022-10-20T09:12:33;6.97;;;5.97;;
7402;SDS011;3742;48.770;11.440;2022-10-20T09:15:01;9.27;;;6.23;;
7402;SDS011;3742;48.770;11.440;2022-10-20T09:17:30;9.07;;;7.00;;
7402;SDS011;3742;48.770;11.440;2022-10-20T09:19:59;12.80;;;7.03;;
7402;SDS011;3742;48.770;11.440;2022-10-20T09:22:28;8.53;;;7.43;;
7402;SDS011;3742;48.770;11.440;2022-10-20T09:25:02;6.77;;;5.33;;
7402;SDS011;3742;48.770;11.440;2022-10-20T09:27:34;7.67;;;5.93;;
7402;SDS011;3742;48.770;11.440;2022-10-20T09:30:13;9.00;;;6.17;;
7402;SDS011;3742;48.770;11.440;2022-10-20T09:32:44;9.90;;;7.47;;
7402;SDS011;3742;48.770;11.440;2022-10-20T09:35:18;9.47;;;6.50;;
7402;SDS011;3742;48.770;11.440;2022-10-20T09:37:53;8.83;;;6.73;;
7402;SDS011;3742;48.770;11.440;2022-10-20T09:40:24;9.03;;;6.30;;
7402;SDS011;3742;48.770;11.440;2022-10-20T09:42:55;9.33;;;6.03;;
7402;SDS011;3742;48.770;11.440;2022-10-20T09:45:26;10.53;;;6.60;;
7402;SDS011;3742;48.770;11.440;2022-10-20T09:48:01;5.90;;;5.30;;
7402;SDS011;3742;48.770;11.440;2022-10-20T09:50:32;10.07;;;5.00;;
7402;SDS011;3742;48.770;11.440;2022-10-20T09:53:03;5.60;;;5.10;;
7402;SDS011;3742;48.770;11.440;2022-10-20T09:55:34;5.60;;;5.00;;
7402;SDS011;3742;48.770;11.440;2022-10-20T09:58:13;7.63;;;4.97;;
7402;SDS011;3742;48.770;11.440;2022-10-20T10:00:56;5.17;;;4.57;;
7402;SDS011;3742;48.770;11.440;2022-10-20T10:03:26;5.17;;;4.40;;
7402;SDS011;3742;48.770;11.440;2022-10-20T10:05:55;7.47;;;4.80;;
7402;SDS011;3742;48.770;11.440;2022-10-20T10:08:25;6.17;;;4.87;;
7402;SDS011;3742;48.770;11.440;2022-10-20T10:10:56;7.57;;;5.20;;
7402;SDS011;3742;48.770;11.440;2022-10-20T10:13:28;9.30;;;4.83;;
7402;SDS011;3742;48.770;11.440;2022-10-20T10:16:02;6.60;;;4.47;;
7402;SDS011;3742;48.770;11.440;2022-10-20T10:18:33;6.53;;;4.70;;
7402;SDS011;3742;48.770;11.440;2022-10-20T10:21:03;7.90;;;4.90;;
7402;SDS011;3742;48.770;11.440;2022-10-20T10:23:33;6.37;;;4.43;;
7402;SDS011;3742;48.770;11.440;2022-10-20T10:29:01;7.67;;;4.40;;
7402;SDS011;3742;48.770;11.440;2022-10-20T10:31:30;8.37;;;5.03;;
7402;SDS011;3742;48.770;11.440;2022-10-20T10:34:20;8.63;;;4.70;;
7402;SDS011;3742;48.770;11.440;2022-10-20T10:36:52;4.77;;;4.03;;
7402;SDS011;3742;48.770;11.440;2022-10-20T10:39:21;7.43;;;4.90;;
7402;SDS011;3742;48.770;11.440;2022-10-20T10:41:51;4.80;;;4.30;;
7402;SDS011;3742;48.770;11.440;2022-10-20T10:44:32;5.73;;;4.30;;
7402;SDS011;3742;48.770;11.440;2022-10-20T10:50:22;6.80;;;4.30;;
7402;SDS011;3742;48.770;11.440;2022-10-20T10:52:56;6.63;;;4.87;;
7402;SDS011;3742;48.770;11.440;2022-10-20T10:55:30;4.63;;;4.20;;
7402;SDS011;3742;48.770;11.440;2022-10-20T10:58:24;6.67;;;4.37;;
7402;SDS011;3742;48.770;11.440;2022-10-20T11:01:05;6.13;;;4.37;;
7402;SDS011;3742;48.770;11.440;2022-10-20T11:03:47;6.60;;;4.50;;
7402;SDS011;3742;48.770;11.440;2022-10-20T11:06:27;5.73;;;4.20;;
7402;SDS011;3742;48.770;11.440;2022-10-20T11:09:04;6.17;;;4.27;;
7402;SDS011;3742;48.770;11.440;2022-10-20T11:11:41;7.47;;;4.73;;
7402;SDS011;3742;48.770;11.440;2022-10-20T11:14:17;4.83;;;4.20;;
7402;SDS011;3742;48.770;11.440;2022-10-20T11:17:12;9.53;;;4.40;;
7402;SDS011;3742;48.770;11.440;2022-10-20T11:23:45;5.53;;;3.63;;
7402;SDS011;3742;48.770;11.440;2022-10-20T11:26:36;4.43;;;3.90;;
7402;SDS011;3742;48.770;11.440;2022-10-20T11:31:06;5.93;;;3.60;;
7402;SDS011;3742;48.770;11.440;2022-10-20T11:37:14;5.40;;;3.70;;
7402;SDS011;3742;48.770;11.440;2022-10-20T11:40:46;4.93;;;3.90;;
7402;SDS011;3742;48.770;11.440;2022-10-20T11:43:19;7.43;;;4.03;;
7402;SDS011;3742;48.770;11.440;2022-10-20T11:45:51;9.67;;;3.73;;
7402;SDS011;3742;48.770;11.440;2022-10-20T11:48:23;5.00;;;4.50;;
7402;SDS011;3742;48.770;11.440;2022-10-20T11:51:02;5.57;;;3.90;;
7402;SDS011;3742;48.770;11.440;2022-10-20T11:53:49;8.00;;;4.40;;
7402;SDS011;3742;48.770;11.440;2022-10-20T11:56:31;4.23;;;3.47;;
7402;SDS011;3742;48.770;11.440;2022-10-20T11:59:10;5.27;;;4.07;;
7402;SDS011;3742;48.770;11.440;2022-10-20T12:01:55;6.63;;;4.33;;
7402;SDS011;3742;48.770;11.440;2022-10-20T12:04:38;7.53;;;4.40;;
7402;SDS011;3742;48.770;11.440;2022-10-20T12:07:43;7.40;;;4.40;;
7402;SDS011;3742;48.770;11.440;2022-10-20T12:10:48;7.03;;;4.47;;
7402;SDS011;3742;48.770;11.440;2022-10-20T12:13:25;9.80;;;6.40;;
7402;SDS011;3742;48.770;11.440;2022-10-20T12:15:58;10.50;;;6.27;;
7402;SDS011;3742;48.770;11.440;2022-10-20T12:18:27;5.50;;;4.67;;
7402;SDS011;3742;48.770;11.440;2022-10-20T12:20:57;6.87;;;4.63;;
7402;SDS011;3742;48.770;11.440;2022-10-20T12:30:00;6.20;;;4.00;;
7402;SDS011;3742;48.770;11.440;2022-10-20T12:38:26;5.10;;;4.20;;
7402;SDS011;3742;48.770;11.440;2022-10-20T12:40:59;5.67;;;3.73;;
7402;SDS011;3742;48.770;11.440;2022-10-20T12:43:29;4.83;;;3.77;;
7402;SDS011;3742;48.770;11.440;2022-10-20T12:46:05;6.13;;;4.33;;
7402;SDS011;3742;48.770;11.440;2022-10-20T12:48:39;4.37;;;3.40;;
7402;SDS011;3742;48.770;11.440;2022-10-20T12:51:15;4.87;;;4.00;;
7402;SDS011;3742;48.770;11.440;2022-10-20T12:53:51;7.03;;;4.03;;
7402;SDS011;3742;48.770;11.440;2022-10-20T12:59:40;4.73;;;3.83;;
7402;SDS011;3742;48.770;11.440;2022-10-20T13:14:28;5.43;;;3.87;;
7402;SDS011;3742;48.770;11.440;2022-10-20T13:17:03;3.87;;;3.47;;
7402;SDS011;3742;48.770;11.440;2022-10-20T13:19:43;3.60;;;3.10;;
7402;SDS011;3742;48.770;11.440;2022-10-20T13:22:24;6.50;;;3.27;;
7402;SDS011;3742;48.770;11.440;2022-10-20T13:25:00;4.87;;;3.10;;
7402;SDS011;3742;48.770;11.440;2022-10-20T13:27:30;5.97;;;4.17;;
7402;SDS011;3742;48.770;11.440;2022-10-20T13:29:59;6.63;;;3.20;;
7402;SDS011;3742;48.770;11.440;2022-10-20T13:32:30;4.27;;;3.63;;
7402;SDS011;3742;48.770;11.440;2022-10-20T13:35:12;5.50;;;3.00;;
7402;SDS011;3742;48.770;11.440;2022-10-20T13:37:52;4.50;;;3.90;;
7402;SDS011;3742;48.770;11.440;2022-10-20T13:41:21;5.07;;;3.40;;
7402;SDS011;3742;48.770;11.440;2022-10-20T13:44:08;4.60;;;3.03;;
7402;SDS011;3742;48.770;11.440;2022-10-20T13:47:32;7.57;;;3.40;;
7402;SDS011;3742;48.770;11.440;2022-10-20T13:51:03;7.67;;;3.80;;
7402;SDS011;3742;48.770;11.440;2022-10-20T13:53:33;8.17;;;3.63;;
7402;SDS011;3742;48.770;11.440;2022-10-20T13:56:05;4.40;;;2.90;;
7402;SDS011;3742;48.770;11.440;2022-10-20T13:58:36;4.20;;;3.20;;
7402;SDS011;3742;48.770;11.440;2022-10-20T14:01:05;7.73;;;3.50;;
7402;SDS011;3742;48.770;11.440;2022-10-20T14:03:43;5.00;;;3.53;;
7402;SDS011;3742;48.770;11.440;2022-10-20T14:06:30;5.33;;;3.27;;
7402;SDS011;3742;48.770;11.440;2022-10-20T14:09:08;5.27;;;2.80;;
7402;SDS011;3742;48.770;11.440;2022-10-20T14:11:42;5.73;;;3.33;;
7402;SDS011;3742;48.770;11.440;2022-10-20T14:14:12;4.80;;;3.60;;
7402;SDS011;3742;48.770;11.440;2022-10-20T14:16:45;5.53;;;3.20;;
7402;SDS011;3742;48.770;11.440;2022-10-20T14:19:18;7.93;;;3.53;;
7402;SDS011;3742;48.770;11.440;2022-10-20T14:21:50;5.00;;;3.70;;
7402;SDS011;3742;48.770;11.440;2022-10-20T14:24:26;5.20;;;3.83;;
7402;SDS011;3742;48.770;11.440;2022-10-20T14:26:57;5.73;;;3.43;;
7402;SDS011;3742;48.770;11.440;2022-10-20T14:29:28;5.50;;;3.27;;
7402;SDS011;3742;48.770;11.440;2022-10-20T14:31:57;4.10;;;3.20;;
7402;SDS011;3742;48.770;11.440;2022-10-20T14:34:26;9.00;;;3.27;;
7402;SDS011;3742;48.770;11.440;2022-10-20T14:36:57;8.10;;;3.57;;
7402;SDS011;3742;48.770;11.440;2022-10-20T14:39:31;6.70;;;3.80;;
7402;SDS011;3742;48.770;11.440;2022-10-20T14:42:02;5.53;;;3.27;;
7402;SDS011;3742;48.770;11.440;2022-10-20T14:44:32;8.60;;;3.97;;
7402;SDS011;3742;48.770;11.440;2022-10-20T14:47:02;5.83;;;3.70;;
7402;SDS011;3742;48.770;11.440;2022-10-20T14:49:34;7.47;;;4.70;;
7402;SDS011;3742;48.770;11.440;2022-10-20T14:52:17;4.23;;;3.30;;
7402;SDS011;3742;48.770;11.440;2022-10-20T14:54:48;4.87;;;3.10;;
7402;SDS011;3742;48.770;11.440;2022-10-20T14:57:28;5.53;;;3.50;;
7402;SDS011;3742;48.770;11.440;2022-10-20T14:59:59;4.33;;;3.60;;
7402;SDS011;3742;48.770;11.440;2022-10-20T15:02:32;5.63;;;3.73;;
7402;SDS011;3742;48.770;11.440;2022-10-20T15:08:05;4.53;;;3.30;;
7402;SDS011;3742;48.770;11.440;2022-10-20T15:10:35;9.20;;;3.93;;
7402;SDS011;3742;48.770;11.440;2022-10-20T15:13:04;6.30;;;4.03;;
7402;SDS011;3742;48.770;11.440;2022-10-20T15:15:36;7.70;;;3.57;;
7402;SDS011;3742;48.770;11.440;2022-10-20T15:18:09;8.07;;;3.63;;
7402;SDS011;3742;48.770;11.440;2022-10-20T15:20:41;4.30;;;3.60;;
7402;SDS011;3742;48.770;11.440;2022-10-20T15:23:12;4.70;;;3.40;;
7402;SDS011;3742;48.770;11.440;2022-10-20T15:25:44;7.73;;;3.77;;
7402;SDS011;3742;48.770;11.440;2022-10-20T15:28:21;7.07;;;3.80;;
7402;SDS011;3742;48.770;11.440;2022-10-20T15:30:57;8.83;;;4.03;;
7402;SDS011;3742;48.770;11.440;2022-10-20T15:33:26;5.63;;;3.93;;
7402;SDS011;3742;48.770;11.440;2022-10-20T15:35:55;5.10;;;3.90;;
7402;SDS011;3742;48.770;11.440;2022-10-20T15:38:27;6.77;;;3.80;;
7402;SDS011;3742;48.770;11.440;2022-10-20T15:40:57;6.07;;;3.70;;
7402;SDS011;3742;48.770;11.440;2022-10-20T15:43:26;8.47;;;4.37;;
7402;SDS011;3742;48.770;11.440;2022-10-20T15:45:55;8.00;;;5.00;;
7402;SDS011;3742;48.770;11.440;2022-10-20T15:48:24;10.13;;;6.17;;
7402;SDS011;3742;48.770;11.440;2022-10-20T15:50:54;8.67;;;4.90;;
7402;SDS011;3742;48.770;11.440;2022-10-20T15:54:20;7.10;;;4.33;;
7402;SDS011;3742;48.770;11.440;2022-10-20T15:57:20;5.63;;;3.87;;
7402;SDS011;3742;48.770;11.440;2022-10-20T16:00:55;4.40;;;3.83;;
7402;SDS011;3742;48.770;11.440;2022-10-20T16:04:08;5.03;;;3.43;;
7402;SDS011;3742;48.770;11.440;2022-10-20T16:10:13;4.37;;;3.50;;
7402;SDS011;3742;48.770;11.440;2022-10-20T16:13:19;4.67;;;3.80;;
7402;SDS011;3742;48.770;11.440;2022-10-20T16:16:09;22.00;;;4.50;;
7402;SDS011;3742;48.770;11.440;2022-10-20T16:19:10;8.20;;;4.33;;
7402;SDS011;3742;48.770;11.440;2022-10-20T16:22:07;4.90;;;4.37;;
7402;SDS011;3742;48.770;11.440;2022-10-20T16:25:14;4.43;;;3.97;;
7402;SDS011;3742;48.770;11.440;2022-10-20T16:27:57;12.10;;;4.53;;
7402;SDS011;3742;48.770;11.440;2022-10-20T16:30:26;6.80;;;4.27;;